Ana Sayfa
METAR-TAF:

METAR-TAF

Havaalanları :

Khon Kaen, Tayland

Enlem: 16-26N, Boylam: 102-50E, yükseklik: 165 m

Güncel hava durumu gözlemi

Rapor saat 09:00 UTC de 30 dakika önce yapıldı.
Rüzgar değişken yönden 3 kt
Sıcaklık 34°C
Nem 34%
Basınç 1009 hPa
Görüş mesafesi 10 km veya daha fazla
3000 ft yükseklikte az bulutlu
10000 ft yükseklikte parçalı bulutlu

METAR: VTUK 280900Z VRB03KT 9999 FEW030 SCT100 34/16 Q1009 NOSIG

Saat: 16:30 (09:30 UTC)

Tahmin

Rapor saat 05:00 UTC de 4 saat ve 30 dakika önce yapıldı.
Ayın 28'si saat 06 UTC'den ayın 29'si saat 06 UTC'ye kadar geçerli Tahmin
Rüzgar kuzeydoğudan 3 kt
Görüş mesafesi: 9000 m
3000 ft yükseklikte az bulutlu
Dönüşüyor
ayın 28'si saat 21 UTC'den ayın 28'si saat 23 UTC'ye kadar
Görüş mesafesi: 5000 m
Pus
Dönüşüyor
ayın 29'si saat 02 UTC'den ayın 29'si saat 04 UTC'ye kadar
Görüş mesafesi: 8000 m

TAF: VTUK 280500Z 2806/2906 05003KT 9000 FEW030 BECMG 2821/2823 5000 BR BECMG 2902/2904 8000 NSW

4.000'den fazla havaalanı için hava durumu gözlemleri ve tahminleri (METAR ve TAF raporları).

Kullanılabilir istasyonlar harita üzerinde sarı ve kırmızı noktalarla gösterilir.

İstasyonun adını görmek için fareyi noktanın üzerinde gezdirin.

Sonrasında hava gözlem ve tahminlerini görmek için tıklayın.

Haritayı değiştirmek için: yaklaştırmak için siyah artı işaretli yeşil düğmeye ve uzaklaştırmak için de eksi işaretli düğmeye hızla tıklayın; bitişik haritalar için yeşil okları kullanın.


METAR-TAF: